createdAt,value
2019-03-12T00:00:39.496Z,90.48
2019-03-12T00:01:20.237Z,90.67
2019-03-12T00:02:01.723Z,91.24
2019-03-12T00:02:42.536Z,90
2019-03-12T00:03:23.360Z,90.38
2019-03-12T00:04:04.128Z,90.48
2019-03-12T00:04:44.966Z,90.48
2019-03-12T00:05:25.787Z,90.34
2019-03-12T00:06:06.555Z,90.43
2019-03-12T00:06:47.330Z,90.91
2019-03-12T00:07:27.990Z,90.53
2019-03-12T00:08:08.859Z,90.72
2019-03-12T00:08:49.705Z,91
2019-03-12T00:09:30.597Z,91.38
2019-03-12T00:10:11.322Z,91.09
2019-03-12T00:10:52.178Z,90.91
2019-03-12T00:11:32.999Z,90.62
2019-03-12T00:12:14.518Z,90.43
2019-03-12T00:12:55.206Z,90.62
2019-03-12T00:13:35.979Z,90.62
2019-03-12T00:14:17.667Z,90.86
2019-03-12T00:14:58.427Z,90.62
2019-03-12T00:15:39.773Z,90.53
2019-03-12T00:16:20.526Z,90.53
2019-03-12T00:17:01.208Z,91
2019-03-12T00:17:41.979Z,90.62
2019-03-12T00:18:22.537Z,91.09
2019-03-12T00:19:03.123Z,91.28
2019-03-12T00:19:43.739Z,90.72
2019-03-12T00:20:24.318Z,90.62
2019-03-12T00:21:04.926Z,90.62
2019-03-12T00:21:45.488Z,91
2019-03-12T00:22:26.058Z,90.91
2019-03-12T00:23:06.636Z,91.19
2019-03-12T00:23:47.222Z,91.38
2019-03-12T00:24:27.798Z,92.14
2019-03-12T00:25:08.365Z,91.95
2019-03-12T00:25:48.939Z,91.76
2019-03-12T00:26:29.529Z,91.85
2019-03-12T00:27:10.114Z,91.95
2019-03-12T00:27:50.686Z,91
2019-03-12T00:28:31.309Z,91.09
2019-03-12T00:29:11.887Z,91.28
2019-03-12T00:29:52.510Z,91.09
2019-03-12T00:30:33.136Z,91.19
2019-03-12T00:31:13.721Z,90.62
2019-03-12T00:31:54.261Z,91.28
2019-03-12T00:32:34.825Z,90.91
2019-03-12T00:33:15.378Z,91.09
2019-03-12T00:33:55.965Z,91
2019-03-12T00:34:36.542Z,91
2019-03-12T00:35:17.109Z,91.38
2019-03-12T00:35:57.705Z,91.28
2019-03-12T00:36:38.270Z,91.28
2019-03-12T00:37:18.848Z,90.81
2019-03-12T00:37:59.406Z,90.53
2019-03-12T00:38:39.960Z,90.15
2019-03-12T00:39:20.595Z,90.34
2019-03-12T00:40:01.138Z,90.62
2019-03-12T00:40:41.705Z,91.09
2019-03-12T00:41:22.263Z,90.81
2019-03-12T00:42:02.824Z,90.81
2019-03-12T00:42:43.395Z,91.28
2019-03-12T00:43:23.952Z,91.28
2019-03-12T00:44:04.531Z,91.28
2019-03-12T00:44:45.091Z,91.19
2019-03-12T00:45:25.649Z,90.62
2019-03-12T00:46:06.224Z,91.19
2019-03-12T00:46:46.794Z,90.62
2019-03-12T00:47:27.362Z,90.81
2019-03-12T00:48:08.252Z,91.19
2019-03-12T00:48:48.827Z,90.72
2019-03-12T00:49:29.399Z,91.19
2019-03-12T00:50:09.984Z,90.81
2019-03-12T00:50:50.543Z,91.38
2019-03-12T00:51:31.133Z,90.62
2019-03-12T00:52:11.775Z,90.72
2019-03-12T00:52:52.338Z,90.91
2019-03-12T00:53:32.913Z,90.81
2019-03-12T00:54:13.462Z,91.19
2019-03-12T00:54:54.079Z,90.62
2019-03-12T00:55:34.643Z,91.09
2019-03-12T00:56:15.234Z,91
2019-03-12T00:56:55.814Z,91.38
2019-03-12T00:57:36.363Z,91
2019-03-12T00:58:16.938Z,91.28
2019-03-12T00:58:57.558Z,91.28
2019-03-12T00:59:38.154Z,91.28
2019-03-12T01:00:18.705Z,91.19
2019-03-12T01:00:59.260Z,90.81
2019-03-12T01:01:39.813Z,90.91
2019-03-12T01:02:20.431Z,91.19
2019-03-12T01:03:00.972Z,90.62
2019-03-12T01:03:41.573Z,91.09
2019-03-12T01:04:22.110Z,90.72
2019-03-12T01:05:02.711Z,91.19
2019-03-12T01:05:43.269Z,91
2019-03-12T01:06:23.841Z,91.09
2019-03-12T01:07:04.435Z,91.19
2019-03-12T01:07:44.986Z,91.38
2019-03-12T01:08:25.573Z,91.47
2019-03-12T01:09:06.125Z,91.76
2019-03-12T01:09:46.707Z,91.47
2019-03-12T01:10:27.266Z,91.19
2019-03-12T01:11:07.866Z,91
2019-03-12T01:11:48.495Z,91.19
2019-03-12T01:12:29.082Z,90.91
2019-03-12T01:13:09.678Z,91.09
2019-03-12T01:13:50.242Z,91
2019-03-12T01:14:30.825Z,91.38
2019-03-12T01:15:11.421Z,91.19
2019-03-12T01:15:51.960Z,91.47
2019-03-12T01:16:32.547Z,91.47
2019-03-12T01:17:13.086Z,91.19
2019-03-12T01:17:53.658Z,91.95
2019-03-12T01:18:34.308Z,91.28
2019-03-12T01:19:14.945Z,91.19
2019-03-12T01:19:55.517Z,91.38
2019-03-12T01:20:36.069Z,91.19
2019-03-12T01:21:16.630Z,91.19
2019-03-12T01:21:57.216Z,91.19
2019-03-12T01:22:37.830Z,91.19
2019-03-12T01:23:18.401Z,91
2019-03-12T01:23:58.981Z,91.38
2019-03-12T01:24:39.538Z,91.38
2019-03-12T01:25:20.113Z,91.38
2019-03-12T01:26:00.665Z,91.28
2019-03-12T01:26:41.222Z,91.38
2019-03-12T01:27:21.791Z,91.09
2019-03-12T01:28:02.362Z,91.09
2019-03-12T01:28:42.927Z,91.09
2019-03-12T01:29:23.511Z,91.19
2019-03-12T01:30:04.081Z,91.28
2019-03-12T01:30:44.653Z,91.38
2019-03-12T01:31:25.224Z,91.38
2019-03-12T01:32:05.783Z,91.47
2019-03-12T01:32:46.401Z,91.19
2019-03-12T01:33:26.970Z,91.38
2019-03-12T01:34:07.542Z,91.09
2019-03-12T01:34:48.132Z,91.19
2019-03-12T01:35:28.712Z,90.91
2019-03-12T01:36:09.275Z,91.09
2019-03-12T01:36:49.879Z,91
2019-03-12T01:37:30.475Z,91.28
2019-03-12T01:38:11.066Z,91.28
2019-03-12T01:38:51.673Z,90.81
2019-03-12T01:39:32.287Z,90.81
2019-03-12T01:40:12.864Z,90.62
2019-03-12T01:40:53.428Z,90.72
2019-03-12T01:41:33.997Z,90.91
2019-03-12T01:42:14.560Z,91.28
2019-03-12T01:42:55.147Z,91.38
2019-03-12T01:43:35.697Z,90.62
2019-03-12T01:44:16.300Z,91.09
2019-03-12T01:44:56.845Z,91.09
2019-03-12T01:45:37.405Z,90.72
2019-03-12T01:46:17.967Z,90.72
2019-03-12T01:46:58.529Z,91.19
2019-03-12T01:47:39.118Z,91.09
2019-03-12T01:48:19.697Z,91.09
2019-03-12T01:49:00.275Z,91.09
2019-03-12T01:49:40.852Z,91.09
2019-03-12T01:50:21.424Z,91
2019-03-12T01:51:01.988Z,91.09
2019-03-12T01:51:42.563Z,90.53
2019-03-12T01:52:23.118Z,90.15
2019-03-12T01:53:03.706Z,90.24
2019-03-12T01:53:44.729Z,90.24
2019-03-12T01:54:25.332Z,89.96
2019-03-12T01:55:05.892Z,90.24
2019-03-12T01:55:46.455Z,90.53
2019-03-12T01:56:27.021Z,90.34
2019-03-12T01:57:07.613Z,90.43
2019-03-12T01:57:48.174Z,90.53
2019-03-12T01:58:28.776Z,90.34
2019-03-12T01:59:09.346Z,90.15
2019-03-12T01:59:49.943Z,89.58
2019-03-12T02:00:30.528Z,90.05
2019-03-12T02:01:11.164Z,89.58
2019-03-12T02:01:51.642Z,90.1
2019-03-12T02:02:32.220Z,90
2019-03-12T02:03:12.804Z,89.86
2019-03-12T02:03:53.387Z,89.77
2019-03-12T02:04:33.975Z,89.81
2019-03-12T02:05:14.550Z,89.2
2019-03-12T02:05:55.141Z,88.92
2019-03-12T02:06:35.707Z,89.29
2019-03-12T02:07:16.252Z,89.43
2019-03-12T02:07:56.847Z,89.2
2019-03-12T02:08:37.397Z,89.2
2019-03-12T02:09:17.972Z,89.2
2019-03-12T02:09:58.510Z,89.96
2019-03-12T02:10:39.073Z,89.67
2019-03-12T02:11:19.638Z,89.96
2019-03-12T02:12:00.205Z,89.96
2019-03-12T02:12:40.759Z,89.86
2019-03-12T02:13:21.334Z,90.05
2019-03-12T02:14:01.889Z,89.77
2019-03-12T02:14:42.463Z,89.39
2019-03-12T02:15:23.026Z,89.77
2019-03-12T02:16:03.605Z,89.48
2019-03-12T02:16:44.167Z,89.58
2019-03-12T02:17:24.740Z,90.19
2019-03-12T02:18:05.322Z,89.62
2019-03-12T02:18:45.906Z,89.58
2019-03-12T02:19:26.530Z,89.96
2019-03-12T02:20:07.122Z,89.81
2019-03-12T02:20:47.716Z,89.48
2019-03-12T02:21:28.289Z,89.86
2019-03-12T02:22:08.878Z,89.58
2019-03-12T02:22:49.499Z,90.34
2019-03-12T02:23:30.039Z,89.77
2019-03-12T02:24:10.618Z,90.1
2019-03-12T02:24:52.850Z,89.62
2019-03-12T02:25:31.878Z,89.91
2019-03-12T02:26:12.446Z,90
2019-03-12T02:26:53.030Z,89.62
2019-03-12T02:27:33.589Z,89.91
2019-03-12T02:28:14.155Z,89.86
2019-03-12T02:28:54.730Z,89.77
2019-03-12T02:29:35.299Z,89.48
2019-03-12T02:30:15.859Z,89.81
2019-03-12T02:30:56.436Z,89.77
2019-03-12T02:31:37.009Z,89.77
2019-03-12T02:32:17.602Z,89.72
2019-03-12T02:32:58.149Z,89.86
2019-03-12T02:33:38.709Z,90.1
2019-03-12T02:34:19.283Z,89.81
2019-03-12T02:34:59.888Z,89.2
2019-03-12T02:35:40.439Z,89.58
2019-03-12T02:36:21.006Z,89.39
2019-03-12T02:37:01.557Z,89.39
2019-03-12T02:37:42.132Z,89.77
2019-03-12T02:38:22.673Z,89.29
2019-03-12T02:39:03.274Z,90.1
2019-03-12T02:39:43.851Z,90.29
2019-03-12T02:40:24.408Z,89.67
2019-03-12T02:41:04.971Z,89.77
2019-03-12T02:41:45.559Z,89.72
2019-03-12T02:42:26.141Z,89.72
2019-03-12T02:43:06.712Z,89.81
2019-03-12T02:43:47.260Z,89.67
2019-03-12T02:44:27.826Z,89.58
2019-03-12T02:45:08.402Z,89.62
2019-03-12T02:45:48.970Z,89.58
2019-03-12T02:46:29.773Z,89.48
2019-03-12T02:47:10.108Z,89.06
2019-03-12T02:47:50.677Z,89.81
2019-03-12T02:48:31.242Z,89.62
2019-03-12T02:49:11.871Z,89.67
2019-03-12T02:49:52.394Z,89.72
2019-03-12T02:50:32.954Z,90.1
2019-03-12T02:51:13.502Z,89.81
2019-03-12T02:51:54.075Z,89.81
2019-03-12T02:52:34.630Z,89.72
2019-03-12T02:53:15.185Z,89.91
2019-03-12T02:53:55.748Z,89.91
2019-03-12T02:54:36.308Z,89.81
2019-03-12T02:55:16.932Z,89.43
2019-03-12T02:56:01.543Z,90
2019-03-12T02:56:38.090Z,89.62
2019-03-12T02:57:18.627Z,89.15
2019-03-12T02:57:59.169Z,89.15
2019-03-12T02:58:39.727Z,89.25
2019-03-12T02:59:20.293Z,89.25
2019-03-12T03:00:00.902Z,89.25
2019-03-12T03:00:41.420Z,89.29
2019-03-12T03:01:21.995Z,89.34
2019-03-12T03:02:02.587Z,89.25
2019-03-12T03:02:43.158Z,89.39
2019-03-12T03:03:23.722Z,89.43
2019-03-12T03:04:04.303Z,89.29
2019-03-12T03:04:44.859Z,89.06
2019-03-12T03:05:25.404Z,89.34
2019-03-12T03:06:05.993Z,89.34
2019-03-12T03:06:46.570Z,89.43
2019-03-12T03:07:27.147Z,89.53
2019-03-12T03:08:07.701Z,89.34
2019-03-12T03:08:48.284Z,89.43
2019-03-12T03:09:28.812Z,89.34
2019-03-12T03:10:09.399Z,89.34
2019-03-12T03:10:50.001Z,89.62
2019-03-12T03:11:30.552Z,89.53
2019-03-12T03:12:11.138Z,89.43
2019-03-12T03:12:51.718Z,89.62
2019-03-12T03:13:32.277Z,89.62
2019-03-12T03:14:12.842Z,89.48
2019-03-12T03:14:53.416Z,89.2
2019-03-12T03:15:33.986Z,89.2
2019-03-12T03:16:14.529Z,89.2
2019-03-12T03:16:55.089Z,89.2
2019-03-12T03:17:35.656Z,90
2019-03-12T03:18:16.240Z,89.58
2019-03-12T03:18:56.826Z,89.81
2019-03-12T03:19:37.417Z,90.15
2019-03-12T03:20:17.961Z,90.57
2019-03-12T03:20:58.522Z,90.19
2019-03-12T03:21:39.099Z,90.57
2019-03-12T03:22:19.674Z,89.62
2019-03-12T03:23:00.236Z,90.19
2019-03-12T03:23:40.807Z,89.62
2019-03-12T03:24:21.395Z,90
2019-03-12T03:25:01.972Z,90.19
2019-03-12T03:25:42.500Z,89.62
2019-03-12T03:26:23.082Z,89.81
2019-03-12T03:27:03.749Z,89.81
2019-03-12T03:27:44.321Z,89.62
2019-03-12T03:28:24.882Z,90
2019-03-12T03:29:05.481Z,90
2019-03-12T03:29:46.089Z,89.53
2019-03-12T03:30:26.640Z,89.72
2019-03-12T03:31:07.261Z,89.72
2019-03-12T03:31:47.831Z,89.53
2019-03-12T03:32:28.375Z,89.43
2019-03-12T03:33:08.947Z,89.81
2019-03-12T03:33:49.607Z,89.43
2019-03-12T03:34:30.172Z,89.34
2019-03-12T03:35:10.692Z,89.43
2019-03-12T03:35:51.274Z,90
2019-03-12T03:36:31.838Z,89.81
2019-03-12T03:37:12.401Z,90
2019-03-12T03:37:52.960Z,89.72
2019-03-12T03:38:33.544Z,89.81
2019-03-12T03:39:14.130Z,89.91
2019-03-12T03:39:54.693Z,89.81
2019-03-12T03:40:35.252Z,90
2019-03-12T03:41:15.816Z,89.91
2019-03-12T03:41:56.374Z,89.81
2019-03-12T03:42:36.946Z,90
2019-03-12T03:43:17.547Z,90.1
2019-03-12T03:43:58.114Z,90.48
2019-03-12T03:44:38.697Z,90.57
2019-03-12T03:45:19.229Z,90.1
2019-03-12T03:45:59.847Z,90.67
2019-03-12T03:46:40.392Z,90.1
2019-03-12T03:47:20.964Z,90.38
2019-03-12T03:48:01.528Z,89.91
2019-03-12T03:48:42.078Z,90.29
2019-03-12T03:49:22.661Z,90
2019-03-12T03:50:03.269Z,89.91
2019-03-12T03:50:43.865Z,90.1
2019-03-12T03:51:24.429Z,89.91
2019-03-12T03:52:05.005Z,90
2019-03-12T03:52:45.570Z,90.38
2019-03-12T03:53:26.144Z,90.1
2019-03-12T03:54:06.698Z,90.19
2019-03-12T03:54:47.272Z,89.91
2019-03-12T03:55:27.833Z,90.1
2019-03-12T03:56:08.402Z,89.81
2019-03-12T03:56:48.967Z,89.62
2019-03-12T03:57:29.516Z,89.91
2019-03-12T03:58:10.119Z,89.62
2019-03-12T03:58:50.663Z,90.1
2019-03-12T03:59:31.222Z,90.48
2019-03-12T04:00:11.805Z,90.38
2019-03-12T04:00:52.353Z,90.1
2019-03-12T04:01:32.951Z,90.48
2019-03-12T04:02:13.499Z,90.57
2019-03-12T04:02:54.088Z,90.67
2019-03-12T04:03:34.673Z,90.38
2019-03-12T04:04:15.257Z,90.1
2019-03-12T04:04:55.812Z,90.1
2019-03-12T04:05:36.397Z,90.1
2019-03-12T04:06:16.954Z,90.29
2019-03-12T04:06:57.515Z,90.29
2019-03-12T04:07:38.065Z,90.38
2019-03-12T04:08:18.639Z,90.48
2019-03-12T04:08:59.206Z,90.57
2019-03-12T04:09:39.747Z,90.38
2019-03-12T04:10:20.353Z,90.48
2019-03-12T04:11:00.891Z,90.29
2019-03-12T04:11:41.480Z,90
2019-03-12T04:12:22.066Z,89.62
2019-03-12T04:13:02.656Z,89.72
2019-03-12T04:13:43.212Z,89.72
2019-03-12T04:14:23.822Z,89.53
2019-03-12T04:15:04.412Z,90
2019-03-12T04:15:44.969Z,90
2019-03-12T04:16:25.525Z,90.1
2019-03-12T04:17:06.078Z,90.19
2019-03-12T04:17:46.649Z,90.38
2019-03-12T04:18:27.311Z,90.38
2019-03-12T04:19:07.778Z,90
2019-03-12T04:19:48.347Z,90
2019-03-12T04:20:28.947Z,90.19
2019-03-12T04:21:09.530Z,90.48
2019-03-12T04:21:50.089Z,90.19
2019-03-12T04:22:30.692Z,90.19
2019-03-12T04:23:11.291Z,90.38
2019-03-12T04:23:51.819Z,90.1
2019-03-12T04:24:32.391Z,90.1
2019-03-12T04:25:13.007Z,89.62
2019-03-12T04:25:53.599Z,89.53
2019-03-12T04:26:34.150Z,89.34
2019-03-12T04:27:14.726Z,89.34
2019-03-12T04:27:55.285Z,89.15
2019-03-12T04:28:35.841Z,89.91
2019-03-12T04:29:16.405Z,90
2019-03-12T04:29:57.037Z,89.53
2019-03-12T04:30:37.623Z,89.53
2019-03-12T04:31:18.180Z,89.43
2019-03-12T04:31:58.753Z,89.43
2019-03-12T04:32:39.310Z,89.81
2019-03-12T04:33:19.890Z,89.72
2019-03-12T04:34:00.460Z,89.62
2019-03-12T04:34:41.012Z,89.81
2019-03-12T04:35:21.573Z,90.19
2019-03-12T04:36:02.148Z,89.62
2019-03-12T04:36:42.724Z,89.62
2019-03-12T04:37:23.330Z,89.62
2019-03-12T04:38:03.893Z,89.62
2019-03-12T04:38:44.458Z,89.62
2019-03-12T04:39:25.024Z,89.81
2019-03-12T04:40:05.608Z,89.25
2019-03-12T04:40:46.156Z,89.34
2019-03-12T04:41:26.718Z,89.34
2019-03-12T04:42:07.285Z,89.43
2019-03-12T04:42:47.848Z,88.96
2019-03-12T04:43:28.412Z,88.96
2019-03-12T04:44:08.967Z,88.77
2019-03-12T04:44:49.533Z,89.15
2019-03-12T04:45:30.110Z,88.96
2019-03-12T04:46:10.693Z,88.77
2019-03-12T04:46:51.272Z,88.77
2019-03-12T04:47:31.848Z,88.77
2019-03-12T04:48:12.420Z,89.58
2019-03-12T04:48:53.016Z,89.34
2019-03-12T04:49:33.574Z,89.58
2019-03-12T04:50:14.130Z,89.25
2019-03-12T04:50:54.695Z,89.2
2019-03-12T04:51:35.265Z,89.72
2019-03-12T04:52:15.821Z,89.43
2019-03-12T04:52:56.374Z,90.24
2019-03-12T04:53:37.628Z,89.91
2019-03-12T04:54:18.310Z,90.29
2019-03-12T04:54:58.910Z,90.29
2019-03-12T04:55:39.502Z,90
2019-03-12T04:56:20.047Z,89.72
2019-03-12T04:57:00.612Z,89.81
2019-03-12T04:57:41.195Z,89.81
2019-03-12T04:58:21.757Z,89.62
2019-03-12T04:59:02.342Z,90.1
2019-03-12T04:59:42.910Z,89.43
2019-03-12T05:00:23.517Z,89.53
2019-03-12T05:01:04.091Z,89.06
2019-03-12T05:01:44.664Z,89.25
2019-03-12T05:02:25.228Z,88.77
2019-03-12T05:03:05.784Z,88.48
2019-03-12T05:03:46.360Z,88.01
2019-03-12T05:04:26.938Z,88.1
2019-03-12T05:05:07.509Z,88.1
2019-03-12T05:05:48.093Z,87.82
2019-03-12T05:06:28.667Z,88.1
2019-03-12T05:07:09.233Z,87.82
2019-03-12T05:07:49.796Z,88.06
2019-03-12T05:08:30.355Z,88.39
2019-03-12T05:09:10.942Z,88.01
2019-03-12T05:09:51.497Z,88.44
2019-03-12T05:10:32.102Z,88.77
2019-03-12T05:11:12.632Z,88.77
2019-03-12T05:11:53.196Z,88.58
2019-03-12T05:12:33.771Z,88.68
2019-03-12T05:13:14.364Z,88.77
2019-03-12T05:13:54.930Z,88.58
2019-03-12T05:14:35.499Z,88.1
2019-03-12T05:15:16.044Z,88.29
2019-03-12T05:15:56.591Z,88.2
2019-03-12T05:16:37.177Z,87.63
2019-03-12T05:17:17.762Z,87.73
2019-03-12T05:17:58.327Z,87.25
2019-03-12T05:18:38.923Z,87.25
2019-03-12T05:19:19.486Z,87.06
2019-03-12T05:20:00.075Z,86.87
2019-03-12T05:20:40.686Z,87.25
2019-03-12T05:21:21.242Z,87.25
2019-03-12T05:22:01.818Z,87.06
2019-03-12T05:22:42.381Z,86.68
2019-03-12T05:23:22.934Z,86.87
2019-03-12T05:24:03.536Z,87.16
2019-03-12T05:24:44.112Z,86.3
2019-03-12T05:25:24.675Z,86.68
2019-03-12T05:26:05.246Z,86.11
2019-03-12T05:26:45.805Z,86.21
2019-03-12T05:27:26.380Z,86.02
2019-03-12T05:28:06.929Z,86.59
2019-03-12T05:28:47.500Z,86.78
2019-03-12T05:29:28.070Z,86.49
2019-03-12T05:30:08.662Z,86.21
2019-03-12T05:30:49.222Z,86.3
2019-03-12T05:31:29.772Z,86.49
2019-03-12T05:32:10.362Z,86.21
2019-03-12T05:32:50.922Z,86.49
2019-03-12T05:33:31.505Z,86.02
2019-03-12T05:34:12.070Z,85.93
2019-03-12T05:34:52.651Z,85.74
2019-03-12T05:35:33.212Z,85.64
2019-03-12T05:36:13.837Z,85.93
2019-03-12T05:36:54.402Z,85.26
2019-03-12T05:37:34.980Z,85.07
2019-03-12T05:38:15.562Z,85.36
2019-03-12T05:38:56.118Z,85.36
2019-03-12T05:39:36.673Z,84.78
2019-03-12T05:40:17.267Z,84.98
2019-03-12T05:40:57.821Z,84.88
2019-03-12T05:41:38.375Z,84.78
2019-03-12T05:42:18.982Z,84.59
2019-03-12T05:43:00.675Z,84.69
2019-03-12T05:43:41.248Z,84.59
2019-03-12T05:44:21.808Z,84.69
2019-03-12T05:45:02.378Z,84.5
2019-03-12T05:45:42.960Z,84.78
2019-03-12T05:46:23.517Z,84.5
2019-03-12T05:47:04.140Z,84.78
2019-03-12T05:47:44.923Z,84.78
2019-03-12T05:48:25.507Z,84.98
2019-03-12T05:49:06.090Z,84.78
2019-03-12T05:49:46.787Z,84.78
2019-03-12T05:50:27.505Z,84.69
2019-03-12T05:51:08.086Z,84.78
2019-03-12T05:51:48.652Z,84.5
2019-03-12T05:52:29.226Z,84.59
2019-03-12T05:53:09.779Z,84.31
2019-03-12T05:53:50.341Z,84.12
2019-03-12T05:54:30.899Z,84.31
2019-03-12T05:55:11.474Z,83.74
2019-03-12T05:55:52.190Z,83.74
2019-03-12T05:56:32.762Z,84.31
2019-03-12T05:57:13.329Z,84.03
2019-03-12T05:57:53.883Z,84.31
2019-03-12T05:58:34.494Z,84.5
2019-03-12T05:59:15.413Z,84.22
2019-03-12T05:59:56.004Z,84.22
2019-03-12T06:00:37.025Z,84.31
2019-03-12T06:01:17.598Z,84.59
2019-03-12T06:01:58.240Z,84.41
2019-03-12T06:02:38.782Z,84.31
2019-03-12T06:03:19.330Z,84.12
2019-03-12T06:03:59.899Z,84.5
2019-03-12T06:04:40.718Z,83.84
2019-03-12T06:05:21.305Z,84.03
2019-03-12T06:06:02.032Z,83.84
2019-03-12T06:06:42.599Z,84.03
2019-03-12T06:07:23.191Z,84.22
2019-03-12T06:08:03.952Z,84.59
2019-03-12T06:08:44.457Z,84.5
2019-03-12T06:09:29.917Z,84.41
2019-03-12T06:10:05.614Z,84.12
2019-03-12T06:10:46.199Z,84.03
2019-03-12T06:11:26.781Z,84.12
2019-03-12T06:12:07.346Z,83.46
2019-03-12T06:12:47.914Z,83.74
2019-03-12T06:13:28.506Z,84.31
2019-03-12T06:14:09.058Z,83.46
2019-03-12T06:14:49.625Z,83.84
2019-03-12T06:15:30.188Z,83.74
2019-03-12T06:16:10.833Z,83.74
2019-03-12T06:16:51.422Z,83.84
2019-03-12T06:17:32.021Z,84.03
2019-03-12T06:18:12.563Z,83.65
2019-03-12T06:18:53.216Z,83.65
2019-03-12T06:19:33.789Z,83.46
2019-03-12T06:20:14.371Z,83.65
2019-03-12T06:20:54.938Z,83.74
2019-03-12T06:21:35.500Z,83.65
2019-03-12T06:22:16.064Z,84.12
2019-03-12T06:22:56.641Z,84.12
2019-03-12T06:23:37.224Z,84.03
2019-03-12T06:24:17.818Z,84.12
2019-03-12T06:24:58.429Z,83.74
2019-03-12T06:25:38.982Z,83.36
2019-03-12T06:26:19.551Z,83.08
2019-03-12T06:27:00.122Z,83.27
2019-03-12T06:27:40.691Z,83.17
2019-03-12T06:28:21.238Z,82.89
2019-03-12T06:29:01.832Z,82.98
2019-03-12T06:29:42.389Z,83.27
2019-03-12T06:30:25.654Z,83.84
2019-03-12T06:31:03.497Z,83.74
2019-03-12T06:31:44.063Z,84.12
2019-03-12T06:32:24.627Z,84.22
2019-03-12T06:33:05.206Z,84.12
2019-03-12T06:33:45.762Z,84.03
2019-03-12T06:34:26.340Z,84.03
2019-03-12T06:35:06.912Z,83.74
2019-03-12T06:35:47.502Z,83.46
2019-03-12T06:36:28.067Z,83.65
2019-03-12T06:37:08.708Z,83.84
2019-03-12T06:37:49.400Z,83.74
2019-03-12T06:38:29.980Z,84.12
2019-03-12T06:39:10.559Z,83.94
2019-03-12T06:39:52.012Z,83.74
2019-03-12T06:40:33.503Z,83.94
2019-03-12T06:41:13.343Z,83.84
2019-03-12T06:41:53.935Z,84.31
2019-03-12T06:42:34.482Z,83.84
2019-03-12T06:43:15.046Z,83.84
2019-03-12T06:43:55.621Z,84.5
2019-03-12T06:44:36.174Z,84.31
2019-03-12T06:45:16.846Z,84.31
2019-03-12T06:45:57.460Z,84.31
2019-03-12T06:46:38.214Z,84.41
2019-03-12T06:47:18.775Z,84.41
2019-03-12T06:47:59.340Z,84.78
2019-03-12T06:48:39.920Z,84.78
2019-03-12T06:49:20.616Z,84.31
2019-03-12T06:50:01.201Z,84.69
2019-03-12T06:50:41.813Z,84.78
2019-03-12T06:51:22.406Z,84.59
2019-03-12T06:52:02.995Z,84.59
2019-03-12T06:52:43.579Z,84.78
2019-03-12T06:53:24.183Z,84.88
2019-03-12T06:54:04.786Z,84.98
2019-03-12T06:54:45.511Z,85.26
2019-03-12T06:55:26.110Z,84.98
2019-03-12T06:56:06.682Z,85.17
2019-03-12T06:56:47.240Z,85.07
2019-03-12T06:57:27.965Z,85.17
2019-03-12T06:58:08.785Z,85.17
2019-03-12T06:58:49.361Z,85.26
2019-03-12T06:59:29.966Z,84.78
2019-03-12T07:00:10.514Z,84.88
2019-03-12T07:00:51.082Z,85.36
2019-03-12T07:01:31.674Z,85.26
2019-03-12T07:02:12.464Z,84.98
2019-03-12T07:02:53.048Z,85.17
2019-03-12T07:03:33.620Z,85.07
2019-03-12T07:04:14.206Z,85.93
2019-03-12T07:04:54.762Z,85.83
2019-03-12T07:05:35.319Z,85.64
2019-03-12T07:06:15.876Z,85.74
2019-03-12T07:06:56.454Z,85.64
2019-03-12T07:07:37.001Z,85.64
2019-03-12T07:08:17.554Z,85.64
2019-03-12T07:08:58.107Z,85.83
2019-03-12T07:09:38.715Z,86.02
2019-03-12T07:10:19.274Z,85.93
2019-03-12T07:10:59.841Z,85.74
2019-03-12T07:11:40.456Z,85.45
2019-03-12T07:12:21.035Z,85.83
2019-03-12T07:13:01.627Z,85.45
2019-03-12T07:13:42.232Z,85.64
2019-03-12T07:14:22.975Z,85.55
2019-03-12T07:15:03.431Z,86.02
2019-03-12T07:15:43.965Z,86.02
2019-03-12T07:16:24.533Z,85.64
2019-03-12T07:17:05.102Z,85.83
2019-03-12T07:17:45.950Z,86.3
2019-03-12T07:18:26.292Z,85.83
2019-03-12T07:19:06.873Z,85.93
2019-03-12T07:19:47.432Z,86.78
2019-03-12T07:20:27.976Z,86.78
2019-03-12T07:21:08.558Z,86.59
2019-03-12T07:21:49.111Z,86.78
2019-03-12T07:22:29.688Z,85.93
2019-03-12T07:23:10.239Z,87.25
2019-03-12T07:23:50.815Z,86.78
2019-03-12T07:24:31.371Z,86.68
2019-03-12T07:25:11.951Z,87.25
2019-03-12T07:25:52.613Z,87.82
2019-03-12T07:26:33.301Z,87.63
2019-03-12T07:27:13.855Z,88.2
2019-03-12T07:27:54.442Z,88.1
2019-03-12T07:28:35.279Z,88.29
2019-03-12T07:29:15.847Z,89.06
2019-03-12T07:29:56.417Z,89.43
2019-03-12T07:30:37.176Z,89.29
2019-03-12T07:31:17.893Z,89.81
2019-03-12T07:31:58.334Z,89.62
2019-03-12T07:32:38.931Z,89.72
2019-03-12T07:33:19.496Z,89.91
2019-03-12T07:34:00.071Z,89.81
2019-03-12T07:34:40.628Z,90.19
2019-03-12T07:35:22.696Z,90.48
2019-03-12T07:36:01.772Z,90.29
2019-03-12T07:36:42.334Z,89.81
2019-03-12T07:37:22.937Z,89.62
2019-03-12T07:38:03.526Z,89.62
2019-03-12T07:38:44.237Z,89.81
2019-03-12T07:39:24.670Z,90.19
2019-03-12T07:40:05.260Z,90.57
2019-03-12T07:40:45.812Z,90.19
2019-03-12T07:41:32.072Z,90.38
2019-03-12T07:42:06.988Z,90.29
2019-03-12T07:42:47.667Z,90.29
2019-03-12T07:43:28.223Z,90.57
2019-03-12T07:44:08.835Z,90.67
2019-03-12T07:44:49.381Z,91.05
2019-03-12T07:45:30.040Z,91.71
2019-03-12T07:46:10.589Z,91.47
2019-03-12T07:46:51.160Z,89.76
2019-03-12T07:47:35.896Z,89
2019-03-12T07:48:12.584Z,87.87
2019-03-12T07:48:53.301Z,87.58
2019-03-12T07:49:34.357Z,87.3
2019-03-12T07:50:14.925Z,87.2
2019-03-12T07:50:55.554Z,87.58
2019-03-12T07:51:37.298Z,87.11
2019-03-12T07:52:17.878Z,87.11
2019-03-12T07:52:58.430Z,87.01
2019-03-12T07:53:39.080Z,87.39
2019-03-12T07:54:19.913Z,87.77
2019-03-12T07:55:00.467Z,87.68
2019-03-12T07:55:41.016Z,88.24
2019-03-12T07:56:21.582Z,88.06
2019-03-12T07:57:02.170Z,88.01
2019-03-12T07:57:42.762Z,88.48
2019-03-12T07:58:35.085Z,88.53
2019-03-12T07:59:04.192Z,88.96
2019-03-12T07:59:44.729Z,88.77
2019-03-12T08:00:25.555Z,88.77
2019-03-12T08:01:06.178Z,89.34
2019-03-12T08:01:46.715Z,89.58
2019-03-12T08:02:27.358Z,89.25
2019-03-12T08:03:08.157Z,89.62
2019-03-12T08:03:49.118Z,89.53
2019-03-12T08:04:29.903Z,89.62
2019-03-12T08:05:10.671Z,89.34
2019-03-12T08:05:51.448Z,89.29
2019-03-12T08:06:32.299Z,89.58
2019-03-12T08:07:13.298Z,89.06
2019-03-12T08:07:53.904Z,89.39
2019-03-12T08:08:34.475Z,89.39
2019-03-12T08:09:15.113Z,89.29
2019-03-12T08:09:55.811Z,89.53
2019-03-12T08:10:36.367Z,89.43
2019-03-12T08:11:16.961Z,89.29
2019-03-12T08:11:57.552Z,89.53
2019-03-12T08:12:38.141Z,89.72
2019-03-12T08:13:18.850Z,89.43
2019-03-12T08:13:59.531Z,89.81
2019-03-12T08:14:40.282Z,89.91
2019-03-12T08:15:23.231Z,90.1
2019-03-12T08:16:01.441Z,90.48
2019-03-12T08:16:42.057Z,90
2019-03-12T08:17:22.793Z,90.38
2019-03-12T08:18:03.424Z,90.57
2019-03-12T08:18:44.003Z,91.05
2019-03-12T08:19:24.570Z,90.76
2019-03-12T08:20:05.434Z,91.05
2019-03-12T08:20:45.931Z,91.24
2019-03-12T08:21:26.505Z,90.48
2019-03-12T08:22:07.054Z,91.14
2019-03-12T08:22:47.693Z,91.05
2019-03-12T08:23:28.265Z,91.94
2019-03-12T08:24:08.819Z,91.99
2019-03-12T08:24:49.399Z,91.61
2019-03-12T08:25:29.973Z,91.61
2019-03-12T08:26:10.521Z,91.52
2019-03-12T08:26:51.073Z,91.52
2019-03-12T08:27:31.746Z,91.05
2019-03-12T08:28:12.333Z,90.95
2019-03-12T08:28:52.872Z,91.38
2019-03-12T08:29:33.430Z,91.94
2019-03-12T08:30:13.990Z,91.94
2019-03-12T08:30:54.702Z,91.19
2019-03-12T08:31:35.285Z,90.9
2019-03-12T08:32:15.917Z,91.38
2019-03-12T08:32:56.485Z,91.09
2019-03-12T08:33:49.463Z,90.62
2019-03-12T08:34:17.693Z,90.9
2019-03-12T08:34:58.280Z,91.09
2019-03-12T08:35:38.908Z,90.71
2019-03-12T08:36:19.602Z,90.71
2019-03-12T08:37:00.339Z,90.81
2019-03-12T08:37:41.132Z,91.28
2019-03-12T08:38:21.703Z,91.28
2019-03-12T08:39:02.497Z,91.28
2019-03-12T08:39:43.090Z,91.28
2019-03-12T08:40:23.887Z,91.09
2019-03-12T08:41:04.625Z,91
2019-03-12T08:41:45.555Z,90.9
2019-03-12T08:42:26.239Z,90.9
2019-03-12T08:43:06.961Z,90.9
2019-03-12T08:43:47.925Z,91
2019-03-12T08:44:28.466Z,90.71
2019-03-12T08:45:11.030Z,90.05
2019-03-12T08:45:49.858Z,90.43
2019-03-12T08:46:30.240Z,90.9
2019-03-12T08:47:10.809Z,90.9